createdAt,value
2022-12-02T00:00:57.414Z,87.28
2022-12-02T00:03:26.873Z,88.70
2022-12-02T00:05:57.076Z,86.07
2022-12-02T00:08:29.117Z,89.13
2022-12-02T00:10:59.070Z,84.80
2022-12-02T00:13:28.955Z,91.15
2022-12-02T00:15:58.607Z,84.72
2022-12-02T00:18:27.169Z,87.80
2022-12-02T00:20:56.923Z,87.60
2022-12-02T00:23:25.084Z,86.85
2022-12-02T00:25:54.280Z,90.93
2022-12-02T00:28:22.889Z,97.60
2022-12-02T00:30:50.682Z,98.43
2022-12-02T00:33:18.647Z,87.47
2022-12-02T00:35:46.562Z,92.00
2022-12-02T00:38:16.132Z,84.05
2022-12-02T00:40:43.999Z,89.15
2022-12-02T00:43:29.549Z,87.75
2022-12-02T00:46:15.108Z,89.28
2022-12-02T00:48:42.913Z,82.03
2022-12-02T00:51:10.692Z,94.95
2022-12-02T00:53:39.837Z,85.63
2022-12-02T00:56:08.112Z,86.60
2022-12-02T00:58:35.867Z,94.93
2022-12-02T01:01:03.723Z,99.00
2022-12-02T01:03:31.620Z,89.32
2022-12-02T01:05:59.423Z,90.53
2022-12-02T01:08:27.467Z,87.60
2022-12-02T01:10:57.137Z,87.07
2022-12-02T01:13:26.598Z,89.15
2022-12-02T01:15:54.769Z,86.68
2022-12-02T01:18:22.752Z,82.57
2022-12-02T01:20:51.032Z,87.53
2022-12-02T01:23:18.977Z,84.05
2022-12-02T01:25:48.288Z,86.80
2022-12-02T01:28:18.282Z,85.70
2022-12-02T01:30:46.617Z,78.03
2022-12-02T01:33:14.455Z,81.78
2022-12-02T01:35:42.262Z,85.80
2022-12-02T01:38:10.270Z,80.35
2022-12-02T01:40:38.593Z,84.82
2022-12-02T01:43:06.405Z,81.22
2022-12-02T01:45:35.635Z,78.88
2022-12-02T01:48:04.618Z,82.15
2022-12-02T01:50:33.053Z,79.07
2022-12-02T01:53:01.487Z,80.97
2022-12-02T01:55:30.471Z,79.18
2022-12-02T01:57:59.430Z,81.05
2022-12-02T02:00:28.120Z,80.13
2022-12-02T02:02:57.374Z,82.10
2022-12-02T02:05:27.182Z,76.30
2022-12-02T02:07:57.838Z,74.65
2022-12-02T02:10:27.873Z,75.90
2022-12-02T02:12:55.972Z,73.35
2022-12-02T02:15:24.827Z,74.43
2022-12-02T02:17:52.835Z,72.13
2022-12-02T02:20:24.329Z,69.70
2022-12-02T02:22:59.532Z,67.28
2022-12-02T02:25:28.705Z,67.38
2022-12-02T02:27:58.976Z,73.20
2022-12-02T02:30:29.289Z,67.20
2022-12-02T02:32:58.052Z,66.55
2022-12-02T02:35:26.453Z,62.33
2022-12-02T02:37:56.177Z,66.93
2022-12-02T02:40:25.820Z,67.55
2022-12-02T02:42:58.941Z,65.15
2022-12-02T02:45:29.617Z,62.13
2022-12-02T02:47:58.353Z,65.53
2022-12-02T02:50:27.112Z,67.78
2022-12-02T02:52:55.854Z,66.40
2022-12-02T02:55:25.844Z,59.95
2022-12-02T02:57:55.423Z,62.38
2022-12-02T03:00:24.317Z,63.22
2022-12-02T03:02:56.174Z,58.40
2022-12-02T03:05:24.719Z,63.83
2022-12-02T03:07:53.415Z,59.25
2022-12-02T03:10:21.813Z,58.97
2022-12-02T03:12:53.475Z,54.55
2022-12-02T03:15:24.180Z,60.50
2022-12-02T03:17:52.870Z,56.95
2022-12-02T03:20:22.031Z,58.25
2022-12-02T03:22:50.335Z,57.33
2022-12-02T03:25:18.772Z,54.00
2022-12-02T03:27:46.847Z,57.40
2022-12-02T03:30:18.341Z,55.13
2022-12-02T03:32:48.325Z,52.20
2022-12-02T03:35:16.654Z,52.50
2022-12-02T03:37:44.540Z,55.97
2022-12-02T03:40:13.393Z,49.50
2022-12-02T03:42:41.240Z,50.83
2022-12-02T03:45:10.150Z,51.15
2022-12-02T03:47:38.020Z,50.63
2022-12-02T03:50:08.886Z,52.83
2022-12-02T03:52:37.359Z,50.55
2022-12-02T03:55:06.998Z,52.40
2022-12-02T03:57:35.087Z,48.17
2022-12-02T04:00:03.787Z,49.25
2022-12-02T04:02:31.626Z,46.28
2022-12-02T04:04:59.442Z,45.53
2022-12-02T04:07:28.609Z,43.38
2022-12-02T04:09:56.425Z,45.97
2022-12-02T04:12:24.214Z,43.33
2022-12-02T04:14:52.163Z,46.45
2022-12-02T04:17:20.125Z,45.75
2022-12-02T04:19:48.997Z,45.63
2022-12-02T04:22:16.824Z,47.72
2022-12-02T04:24:45.989Z,46.10
2022-12-02T04:27:13.807Z,42.80
2022-12-02T04:29:41.641Z,46.17
2022-12-02T04:32:09.806Z,41.88
2022-12-02T04:34:37.580Z,44.22
2022-12-02T04:37:05.340Z,43.58
2022-12-02T04:39:33.112Z,46.67
2022-12-02T04:42:02.243Z,43.45
2022-12-02T04:44:30.034Z,45.72
2022-12-02T04:46:57.913Z,46.75
2022-12-02T04:49:25.995Z,47.60
2022-12-02T04:51:53.803Z,51.63
2022-12-02T04:54:21.564Z,48.72
2022-12-02T04:56:49.404Z,44.08
2022-12-02T04:59:18.565Z,46.33
2022-12-02T05:01:46.376Z,47.97
2022-12-02T05:04:14.293Z,48.22
2022-12-02T05:06:42.249Z,47.30
2022-12-02T05:09:10.055Z,46.50
2022-12-02T05:11:37.913Z,44.00
2022-12-02T05:14:05.768Z,46.10
2022-12-02T05:16:35.049Z,46.55
2022-12-02T05:19:02.995Z,42.95
2022-12-02T05:21:30.770Z,43.30
2022-12-02T05:23:58.542Z,45.35
2022-12-02T05:26:26.390Z,41.33
2022-12-02T05:28:54.195Z,44.10
2022-12-02T05:31:22.063Z,41.95
2022-12-02T05:33:51.304Z,44.40
2022-12-02T05:36:19.084Z,41.05
2022-12-02T05:38:46.826Z,41.10
2022-12-02T05:41:14.670Z,44.10
2022-12-02T05:43:44.294Z,40.08
2022-12-02T05:46:15.710Z,40.45
2022-12-02T05:48:44.440Z,39.65
2022-12-02T05:51:15.619Z,44.47
2022-12-02T05:53:44.768Z,40.42
2022-12-02T05:56:19.317Z,41.10
2022-12-02T05:58:47.167Z,42.00
2022-12-02T06:01:21.945Z,41.45
2022-12-02T06:03:51.885Z,40.67
2022-12-02T06:06:25.457Z,40.33
2022-12-02T06:08:55.872Z,44.40
2022-12-02T06:11:29.749Z,45.78
2022-12-02T06:13:59.892Z,42.70
2022-12-02T06:16:30.647Z,40.58
2022-12-02T06:19:01.027Z,43.45
2022-12-02T06:21:30.191Z,40.15
2022-12-02T06:23:59.753Z,42.42
2022-12-02T06:26:27.611Z,42.17
2022-12-02T06:29:00.354Z,43.22
2022-12-02T06:31:34.243Z,44.97
2022-12-02T06:34:12.600Z,39.33
2022-12-02T06:36:41.858Z,42.05
2022-12-02T06:39:19.319Z,44.47
2022-12-02T06:41:47.431Z,44.75
2022-12-02T06:44:39.119Z,44.95
2022-12-02T06:47:40.000Z,47.35
2022-12-02T06:50:25.501Z,46.28
2022-12-02T06:52:57.261Z,50.03
2022-12-02T06:55:30.772Z,45.88
2022-12-02T06:58:02.490Z,41.80
2022-12-02T07:00:32.530Z,43.88
2022-12-02T07:03:00.509Z,43.45
2022-12-02T07:05:28.505Z,49.45
2022-12-02T07:07:57.822Z,47.95
2022-12-02T07:10:30.054Z,43.92
2022-12-02T07:12:59.731Z,49.15
2022-12-02T07:15:29.649Z,46.10
2022-12-02T07:17:59.138Z,48.80
2022-12-02T07:20:33.231Z,49.50
2022-12-02T07:23:06.762Z,51.08
2022-12-02T07:25:39.754Z,48.55
2022-12-02T07:28:21.886Z,49.70
2022-12-02T07:30:57.923Z,45.42
2022-12-02T07:33:25.838Z,47.58
2022-12-02T07:35:53.770Z,46.85
2022-12-02T07:38:42.989Z,43.42
2022-12-02T07:41:10.905Z,49.65
2022-12-02T07:43:38.748Z,45.35
2022-12-02T07:46:06.986Z,46.15
2022-12-02T07:48:34.883Z,47.05
2022-12-02T07:51:02.714Z,43.92
2022-12-02T07:53:32.035Z,44.95
2022-12-02T07:55:59.827Z,43.35
2022-12-02T07:58:48.286Z,45.17
2022-12-02T08:01:19.307Z,46.95
2022-12-02T08:03:47.963Z,41.55
2022-12-02T08:06:16.383Z,40.60
2022-12-02T08:08:45.889Z,42.60
2022-12-02T08:11:13.765Z,44.00
2022-12-02T08:13:41.671Z,43.95
2022-12-02T08:16:11.138Z,42.47
2022-12-02T08:18:39.094Z,43.63
2022-12-02T08:21:09.013Z,44.70
2022-12-02T08:23:37.458Z,39.72
2022-12-02T08:26:06.845Z,41.10
2022-12-02T08:28:34.683Z,42.72
2022-12-02T08:31:02.620Z,40.25
2022-12-02T08:33:31.661Z,42.05
2022-12-02T08:35:59.435Z,40.92
2022-12-02T08:38:27.471Z,39.78
2022-12-02T08:40:55.334Z,37.78
2022-12-02T08:43:24.492Z,39.45
2022-12-02T08:45:52.385Z,40.70
2022-12-02T08:48:20.433Z,37.92
2022-12-02T08:50:48.461Z,41.65
2022-12-02T08:53:16.240Z,43.10
2022-12-02T08:55:44.122Z,40.78
2022-12-02T08:58:12.764Z,42.35
2022-12-02T09:00:42.284Z,39.80
2022-12-02T09:03:10.976Z,38.97
2022-12-02T09:05:40.500Z,35.47
2022-12-02T09:08:08.628Z,37.42
2022-12-02T09:10:36.789Z,38.83
2022-12-02T09:13:04.904Z,37.13
2022-12-02T09:15:32.744Z,38.45
2022-12-02T09:18:01.876Z,35.53
2022-12-02T09:20:29.673Z,38.22
2022-12-02T09:22:57.545Z,34.22
2022-12-02T09:25:25.350Z,36.88
2022-12-02T09:27:53.155Z,36.42
2022-12-02T09:30:21.034Z,35.38
2022-12-02T09:32:48.909Z,33.20
2022-12-02T09:35:18.133Z,36.58
2022-12-02T09:37:46.019Z,36.40
2022-12-02T09:40:15.612Z,35.55
2022-12-02T09:42:43.811Z,33.78
2022-12-02T09:45:11.900Z,37.17
2022-12-02T09:47:40.613Z,34.65
2022-12-02T09:50:11.511Z,38.13
2022-12-02T09:52:40.888Z,33.97
2022-12-02T09:55:14.357Z,36.13
2022-12-02T09:57:42.561Z,36.05
2022-12-02T10:00:15.814Z,37.25
2022-12-02T10:02:45.545Z,39.45
2022-12-02T10:05:17.247Z,36.92
2022-12-02T10:07:47.790Z,36.67
2022-12-02T10:10:20.875Z,35.05
2022-12-02T10:12:49.449Z,34.55
2022-12-02T10:15:20.970Z,35.55
2022-12-02T10:17:49.240Z,39.70
2022-12-02T10:20:20.403Z,35.67
2022-12-02T10:23:11.350Z,34.10
2022-12-02T10:25:40.589Z,35.55
2022-12-02T10:28:21.137Z,37.92
2022-12-02T10:30:54.439Z,36.20
2022-12-02T10:33:26.683Z,35.70
2022-12-02T10:35:55.322Z,34.17
2022-12-02T10:38:36.683Z,35.80
2022-12-02T10:41:19.448Z,35.17
2022-12-02T10:44:03.728Z,34.55
2022-12-02T10:46:32.172Z,34.08
2022-12-02T10:49:26.962Z,34.40
2022-12-02T10:51:55.566Z,33.75
2022-12-02T10:54:29.348Z,34.65
2022-12-02T10:56:58.055Z,33.88
2022-12-02T10:59:26.242Z,34.78
2022-12-02T11:01:55.487Z,34.33
2022-12-02T11:04:23.631Z,33.38
2022-12-02T11:06:51.813Z,34.05
2022-12-02T11:12:58.132Z,33.97
2022-12-02T11:15:41.222Z,32.17
2022-12-02T11:18:11.063Z,31.60
2022-12-02T11:20:44.778Z,31.67
2022-12-02T11:23:25.443Z,34.67
2022-12-02T11:26:07.860Z,33.55
2022-12-02T11:29:03.896Z,31.17
2022-12-02T11:31:32.173Z,31.00
2022-12-02T11:34:47.785Z,32.13
2022-12-02T11:37:41.655Z,32.88
2022-12-02T11:40:57.680Z,34.22
2022-12-02T11:44:10.572Z,33.47
2022-12-02T11:46:44.235Z,32.67
2022-12-02T11:49:30.252Z,31.10
2022-12-02T11:52:20.292Z,32.80
2022-12-02T11:54:56.146Z,32.88
2022-12-02T11:57:27.871Z,30.85
2022-12-02T11:59:57.355Z,28.83
2022-12-02T12:02:26.286Z,30.65
2022-12-02T12:05:03.532Z,31.55
2022-12-02T12:07:45.330Z,32.22
2022-12-02T12:10:30.896Z,31.25
2022-12-02T12:13:19.106Z,29.23
2022-12-02T12:15:56.428Z,31.17
2022-12-02T12:18:43.679Z,29.70
2022-12-02T12:21:12.115Z,30.55
2022-12-02T12:23:41.536Z,29.95
2022-12-02T12:26:10.397Z,29.85
2022-12-02T12:28:39.257Z,29.35
2022-12-02T12:31:08.636Z,29.60
2022-12-02T12:33:36.495Z,31.92
2022-12-02T12:36:04.509Z,31.52
2022-12-02T12:38:32.323Z,33.80
2022-12-02T12:41:00.256Z,32.28
2022-12-02T12:43:28.377Z,31.00
2022-12-02T12:45:56.539Z,29.80
2022-12-02T12:48:25.833Z,29.08
2022-12-02T12:50:53.717Z,31.35
2022-12-02T12:53:21.537Z,31.23
2022-12-02T12:55:49.414Z,29.00
2022-12-02T12:58:18.113Z,30.38
2022-12-02T13:00:46.191Z,28.48
2022-12-02T13:03:14.137Z,28.58
2022-12-02T13:05:43.310Z,28.35
2022-12-02T13:08:11.637Z,30.75
2022-12-02T13:10:39.556Z,28.27
2022-12-02T13:13:07.882Z,29.38
2022-12-02T13:15:35.751Z,26.55
2022-12-02T13:18:04.139Z,28.60
2022-12-02T13:20:32.674Z,31.25
2022-12-02T13:23:02.555Z,26.73
2022-12-02T13:25:30.577Z,28.70
2022-12-02T13:27:58.473Z,29.55
2022-12-02T13:30:26.347Z,27.65
2022-12-02T13:32:54.630Z,28.42
2022-12-02T13:35:23.166Z,26.92
2022-12-02T13:37:51.175Z,25.70
2022-12-02T13:40:21.138Z,29.65
2022-12-02T13:42:49.122Z,26.83
2022-12-02T13:45:17.667Z,28.10
2022-12-02T13:47:45.569Z,27.15
2022-12-02T13:50:13.555Z,28.20
2022-12-02T13:52:41.669Z,30.08
2022-12-02T13:55:10.211Z,29.45
2022-12-02T13:57:39.564Z,27.85
2022-12-02T14:00:08.839Z,25.67
2022-12-02T14:02:36.942Z,28.52
2022-12-02T14:05:07.953Z,26.13
2022-12-02T14:07:36.567Z,24.73
2022-12-02T14:10:05.411Z,26.33
2022-12-02T14:12:33.675Z,27.50
2022-12-02T14:15:03.432Z,25.98
2022-12-02T14:17:31.271Z,27.77
2022-12-02T14:19:59.106Z,26.13
2022-12-02T14:22:29.115Z,28.63
2022-12-02T14:24:58.614Z,25.83
2022-12-02T14:27:27.135Z,26.63
2022-12-02T14:29:55.298Z,26.88
2022-12-02T14:32:24.884Z,27.65
2022-12-02T14:34:53.133Z,27.05
2022-12-02T14:37:21.194Z,26.77
2022-12-02T14:39:49.149Z,26.40
2022-12-02T14:42:17.001Z,26.70
2022-12-02T14:44:44.836Z,27.33
2022-12-02T14:47:12.767Z,27.27
2022-12-02T14:49:42.476Z,29.55
2022-12-02T14:52:10.474Z,28.73
2022-12-02T14:54:38.743Z,26.50
2022-12-02T14:57:06.704Z,27.23
2022-12-02T14:59:34.730Z,27.75
2022-12-02T15:02:03.235Z,29.05
2022-12-02T15:04:31.358Z,29.55
2022-12-02T15:07:00.660Z,28.33
2022-12-02T15:09:29.345Z,28.63
2022-12-02T15:11:57.634Z,26.92
2022-12-02T15:14:26.034Z,30.27
2022-12-02T15:16:54.172Z,28.48
2022-12-02T15:19:22.248Z,28.65
2022-12-02T15:21:50.113Z,30.52
2022-12-02T15:24:19.675Z,28.77
2022-12-02T15:26:52.309Z,29.48
2022-12-02T15:29:23.352Z,29.98
2022-12-02T15:31:53.474Z,26.70
2022-12-02T15:34:21.563Z,29.30
2022-12-02T15:36:49.502Z,28.10
2022-12-02T15:39:18.965Z,26.67
2022-12-02T15:41:46.854Z,28.08
2022-12-02T15:44:15.001Z,28.15
2022-12-02T15:46:42.999Z,25.95
2022-12-02T15:49:10.931Z,28.13
2022-12-02T15:51:39.131Z,26.85
2022-12-02T15:54:07.338Z,27.60
2022-12-02T15:56:36.618Z,26.63
2022-12-02T15:59:05.521Z,27.70
2022-12-02T16:01:33.968Z,26.10
2022-12-02T16:04:02.048Z,27.02
2022-12-02T16:06:30.027Z,27.38
2022-12-02T16:08:58.269Z,25.38
2022-12-02T16:11:28.335Z,25.48
2022-12-02T16:13:57.595Z,27.17
2022-12-02T16:16:25.580Z,27.65
2022-12-02T16:18:53.545Z,25.23
2022-12-02T16:21:22.173Z,29.23
2022-12-02T16:23:50.057Z,25.88
2022-12-02T16:26:18.502Z,24.92
2022-12-02T16:28:46.940Z,25.92
2022-12-02T16:31:16.650Z,24.88
2022-12-02T16:33:45.176Z,25.55
2022-12-02T16:36:13.825Z,27.83
2022-12-02T16:38:41.849Z,24.95
2022-12-02T16:41:10.088Z,25.55
2022-12-02T16:43:38.167Z,24.33
2022-12-02T16:46:06.492Z,26.00
2022-12-02T16:48:36.544Z,25.40
2022-12-02T16:51:04.702Z,22.77
2022-12-02T16:53:32.815Z,23.90
2022-12-02T16:56:00.951Z,22.52
2022-12-02T16:58:28.950Z,26.25
2022-12-02T17:00:57.012Z,23.45
2022-12-02T17:03:25.637Z,26.92
2022-12-02T17:05:54.957Z,24.50
2022-12-02T17:08:22.928Z,23.85
2022-12-02T17:10:52.219Z,22.45
2022-12-02T17:13:20.074Z,25.73
2022-12-02T17:15:48.387Z,23.23
2022-12-02T17:18:16.417Z,24.75
2022-12-02T17:20:44.398Z,24.13
2022-12-02T17:23:13.959Z,25.65
2022-12-02T17:25:41.862Z,23.55
2022-12-02T17:28:10.814Z,23.75
2022-12-02T17:30:38.912Z,25.20
2022-12-02T17:33:06.868Z,24.33
2022-12-02T17:35:35.030Z,24.17
2022-12-02T17:38:03.191Z,28.45
2022-12-02T17:40:32.624Z,22.92
2022-12-02T17:43:00.819Z,27.52
2022-12-02T17:45:28.941Z,23.50
2022-12-02T17:47:56.867Z,24.85
2022-12-02T17:50:25.405Z,22.65
2022-12-02T17:52:53.287Z,23.42
2022-12-02T17:55:21.194Z,26.35
2022-12-02T17:57:50.374Z,23.67
2022-12-02T18:00:19.269Z,22.52
2022-12-02T18:02:47.178Z,23.75
2022-12-02T18:05:15.136Z,25.05
2022-12-02T18:07:42.977Z,24.08
2022-12-02T18:10:11.682Z,25.55
2022-12-02T18:12:39.578Z,24.60
2022-12-02T18:15:10.511Z,23.90
2022-12-02T18:17:38.369Z,24.85
2022-12-02T18:20:07.774Z,22.45
2022-12-02T18:22:35.819Z,24.00
2022-12-02T18:25:03.887Z,22.27
2022-12-02T18:27:31.671Z,22.77
2022-12-02T18:29:59.977Z,24.10
2022-12-02T18:32:29.376Z,25.65
2022-12-02T18:34:57.289Z,25.27
2022-12-02T18:37:25.139Z,26.67
2022-12-02T18:39:53.026Z,27.95
2022-12-02T18:42:21.904Z,31.58
2022-12-02T18:44:50.046Z,30.27
2022-12-02T18:47:18.203Z,30.48
2022-12-02T18:49:47.689Z,29.95
2022-12-02T18:52:15.752Z,29.70
2022-12-02T18:54:43.737Z,28.13
2022-12-02T18:57:11.994Z,29.77
2022-12-02T18:59:40.097Z,32.63
2022-12-02T19:02:08.070Z,29.75
2022-12-02T19:04:36.001Z,32.67
2022-12-02T19:07:06.486Z,34.63
2022-12-02T19:09:34.996Z,31.88
2022-12-02T19:12:03.125Z,32.90
2022-12-02T19:14:31.029Z,35.80
2022-12-02T19:16:59.002Z,35.70
2022-12-02T19:19:27.048Z,31.80
2022-12-02T19:21:54.983Z,35.03
2022-12-02T19:24:24.132Z,32.40
2022-12-02T19:26:52.026Z,38.42
2022-12-02T19:29:19.887Z,35.67
2022-12-02T19:31:47.803Z,38.67
2022-12-02T19:34:15.739Z,32.65
2022-12-02T19:36:46.246Z,37.75
2022-12-02T19:39:14.201Z,42.38
2022-12-02T19:41:43.890Z,39.95
2022-12-02T19:44:11.828Z,43.15
2022-12-02T19:46:39.974Z,42.58
2022-12-02T19:49:07.839Z,48.25
2022-12-02T19:51:35.911Z,40.45
2022-12-02T19:54:03.780Z,39.80
2022-12-02T19:56:31.845Z,38.95
2022-12-02T19:59:01.052Z,48.08
2022-12-02T20:01:31.038Z,39.58
2022-12-02T20:04:19.398Z,39.70
2022-12-02T20:06:55.411Z,37.30
2022-12-02T20:09:26.156Z,41.63
2022-12-02T20:11:54.422Z,43.08
2022-12-02T20:14:23.909Z,38.45
2022-12-02T20:16:51.899Z,42.15
2022-12-02T20:19:19.731Z,42.25
2022-12-02T20:21:47.602Z,40.47
2022-12-02T20:24:15.449Z,41.30
2022-12-02T20:26:43.457Z,40.58
2022-12-02T20:29:11.428Z,47.55
2022-12-02T20:31:41.108Z,42.67
2022-12-02T20:34:09.295Z,46.60
2022-12-02T20:36:37.169Z,43.67
2022-12-02T20:39:05.525Z,43.45
2022-12-02T20:41:33.485Z,45.70
2022-12-02T20:44:01.393Z,42.17
2022-12-02T20:46:30.537Z,43.88
2022-12-02T20:48:59.952Z,45.80
2022-12-02T20:51:27.916Z,44.53
2022-12-02T20:53:56.008Z,41.88
2022-12-02T20:56:23.888Z,47.38
2022-12-02T20:58:51.721Z,45.60
2022-12-02T21:01:19.755Z,47.60
2022-12-02T21:03:48.050Z,45.60
2022-12-02T21:06:17.507Z,46.40
2022-12-02T21:08:45.382Z,44.03
2022-12-02T21:11:14.426Z,47.75
2022-12-02T21:13:42.498Z,46.80
2022-12-02T21:16:10.437Z,51.15
2022-12-02T21:18:39.624Z,47.78
2022-12-02T21:21:07.686Z,46.92
2022-12-02T21:23:37.113Z,41.72
2022-12-02T21:26:05.319Z,46.88
2022-12-02T21:28:33.401Z,44.67
2022-12-02T21:31:01.569Z,45.63
2022-12-02T21:33:29.392Z,48.55
2022-12-02T21:35:57.410Z,45.25
2022-12-02T21:38:25.447Z,47.08
2022-12-02T21:40:54.893Z,45.55
2022-12-02T21:43:22.739Z,44.10
2022-12-02T21:45:50.676Z,46.05
2022-12-02T21:48:18.850Z,41.95
2022-12-02T21:50:46.662Z,41.03
2022-12-02T21:53:14.885Z,43.15
2022-12-02T21:55:42.825Z,43.97
2022-12-02T21:58:11.926Z,43.97
2022-12-02T22:00:40.029Z,43.25
2022-12-02T22:03:13.214Z,46.80
2022-12-02T22:05:42.713Z,41.63
2022-12-02T22:08:11.056Z,43.00
2022-12-02T22:10:39.041Z,41.45
2022-12-02T22:13:08.297Z,43.22
2022-12-02T22:15:37.663Z,46.63
2022-12-02T22:18:05.743Z,41.85
2022-12-02T22:20:33.519Z,41.05
2022-12-02T22:23:01.608Z,45.17
2022-12-02T22:25:29.407Z,45.53
2022-12-02T22:27:57.306Z,47.53
2022-12-02T22:30:25.184Z,46.45
2022-12-02T22:32:54.717Z,41.50
2022-12-02T22:35:22.545Z,42.25
2022-12-02T22:37:50.417Z,45.72
2022-12-02T22:40:18.429Z,46.60
2022-12-02T22:42:46.307Z,40.35
2022-12-02T22:45:14.120Z,44.63
2022-12-02T22:47:42.008Z,43.15
2022-12-02T22:50:11.995Z,45.78
2022-12-02T22:52:40.150Z,42.80
2022-12-02T22:55:08.587Z,44.42
2022-12-02T22:57:36.425Z,48.00
2022-12-02T23:00:05.636Z,41.42
2022-12-02T23:02:33.661Z,47.58
2022-12-02T23:05:02.752Z,47.67
2022-12-02T23:07:31.935Z,42.17
2022-12-02T23:09:59.851Z,43.53
2022-12-02T23:12:27.770Z,38.00
2022-12-02T23:15:14.991Z,42.03
2022-12-02T23:17:43.842Z,42.55
2022-12-02T23:20:13.143Z,38.58
2022-12-02T23:22:42.288Z,43.03
2022-12-02T23:25:10.602Z,37.92
2022-12-02T23:27:38.513Z,40.70
2022-12-02T23:30:07.688Z,38.33
2022-12-02T23:32:35.770Z,41.03
2022-12-02T23:35:03.567Z,39.13
2022-12-02T23:37:31.471Z,34.50
2022-12-02T23:40:00.900Z,38.72
2022-12-02T23:42:28.756Z,39.67
2022-12-02T23:44:56.966Z,37.38
2022-12-02T23:47:24.892Z,38.63
2022-12-02T23:49:52.677Z,42.17
2022-12-02T23:52:20.509Z,44.97
2022-12-02T23:54:48.346Z,36.63
2022-12-02T23:57:17.548Z,34.75
2022-12-02T23:59:45.394Z,37.80
